createdAt,value
2024-03-01T00:00:02.256Z,51.323425
2024-03-01T00:01:02.316Z,51.323463
2024-03-01T00:02:02.277Z,51.323490
2024-03-01T00:03:02.187Z,51.323441
2024-03-01T00:04:02.188Z,51.323421
2024-03-01T00:05:02.133Z,51.323448
2024-03-01T00:06:02.126Z,51.323441
2024-03-01T00:07:02.181Z,51.323399
2024-03-01T00:08:02.209Z,51.323414
2024-03-01T00:09:02.092Z,51.323425
2024-03-01T00:10:02.216Z,51.323345
2024-03-01T00:11:02.078Z,51.323151
2024-03-01T00:12:02.036Z,51.323200
2024-03-01T00:13:02.111Z,51.323296
2024-03-01T00:14:02.039Z,51.323326
2024-03-01T00:15:01.971Z,51.323246
2024-03-01T00:16:02.044Z,51.323250
2024-03-01T00:17:01.980Z,51.323273
2024-03-01T00:18:01.968Z,51.323318
2024-03-01T00:19:01.932Z,51.323334
2024-03-01T00:20:01.877Z,51.323395
2024-03-01T00:21:01.862Z,51.323345
2024-03-01T00:22:01.906Z,51.323334
2024-03-01T00:23:01.797Z,51.323318
2024-03-01T00:24:01.956Z,51.323265
2024-03-01T00:25:01.842Z,51.323345
2024-03-01T00:26:01.888Z,51.323380
2024-03-01T00:27:01.739Z,51.323456
2024-03-01T00:28:01.754Z,51.323448
2024-03-01T00:29:01.730Z,51.323437
2024-03-01T00:30:01.678Z,51.323406
2024-03-01T00:31:01.702Z,51.323410
2024-03-01T00:32:01.667Z,51.323444
2024-03-01T00:33:01.682Z,51.323444
2024-03-01T00:34:01.623Z,51.323425
2024-03-01T00:35:01.620Z,51.323421
2024-03-01T00:36:01.581Z,51.323418
2024-03-01T00:37:01.621Z,51.323410
2024-03-01T00:38:01.544Z,51.323433
2024-03-01T00:39:01.548Z,51.323425
2024-03-01T00:40:01.617Z,51.323425
2024-03-01T00:41:01.485Z,51.323429
2024-03-01T00:42:01.556Z,51.323410
2024-03-01T00:43:01.536Z,51.323429
2024-03-01T00:44:01.418Z,51.323437
2024-03-01T00:45:01.396Z,51.323444
2024-03-01T00:46:02.446Z,51.323452
2024-03-01T00:47:01.391Z,51.323437
2024-03-01T00:48:01.388Z,51.323425
2024-03-01T00:49:01.360Z,51.323410
2024-03-01T00:50:01.323Z,51.323383
2024-03-01T00:51:01.290Z,51.323418
2024-03-01T00:52:01.355Z,51.323391
2024-03-01T00:53:01.264Z,51.323421
2024-03-01T00:54:01.234Z,51.323410
2024-03-01T00:55:01.249Z,51.323395
2024-03-01T00:56:01.225Z,51.323414
2024-03-01T00:57:01.228Z,51.323414
2024-03-01T00:58:01.293Z,51.323441
2024-03-01T00:59:01.170Z,51.323441
2024-03-01T01:00:01.242Z,51.323433
2024-03-01T01:01:01.159Z,51.323418
2024-03-01T01:02:01.213Z,51.323425
2024-03-01T01:03:01.147Z,51.323414
2024-03-01T01:04:01.101Z,51.323421
2024-03-01T01:05:01.082Z,51.323437
2024-03-01T01:06:01.047Z,51.323448
2024-03-01T01:07:01.664Z,51.323429
2024-03-01T01:08:01.121Z,51.323433
2024-03-01T01:09:00.975Z,51.323441
2024-03-01T01:10:00.989Z,51.323421
2024-03-01T01:11:00.971Z,51.323414
2024-03-01T01:12:00.962Z,51.323437
2024-03-01T01:13:00.962Z,51.323444
2024-03-01T01:14:01.010Z,51.323414
2024-03-01T01:15:00.886Z,51.323418
2024-03-01T01:16:00.910Z,51.323414
2024-03-01T01:17:00.815Z,51.323421
2024-03-01T01:18:00.881Z,51.323402
2024-03-01T01:19:00.835Z,51.323421
2024-03-01T01:20:00.783Z,51.323433
2024-03-01T01:21:00.734Z,51.323433
2024-03-01T01:22:00.750Z,51.323421
2024-03-01T01:23:00.721Z,51.323441
2024-03-01T01:24:00.713Z,51.323429
2024-03-01T01:25:00.731Z,51.323437
2024-03-01T01:26:00.672Z,51.323437
2024-03-01T01:27:00.632Z,51.323414
2024-03-01T01:28:00.717Z,51.323387
2024-03-01T01:29:00.627Z,51.323421
2024-03-01T01:30:00.652Z,51.323441
2024-03-01T01:31:00.568Z,51.323421
2024-03-01T01:32:00.545Z,51.323406
2024-03-01T01:33:00.552Z,51.323395
2024-03-01T01:34:00.591Z,51.323399
2024-03-01T01:35:00.563Z,51.323395
2024-03-01T01:36:00.478Z,51.323402
2024-03-01T01:37:00.480Z,51.323402
2024-03-01T01:38:01.504Z,51.323402
2024-03-01T01:39:00.445Z,51.323399
2024-03-01T01:40:00.560Z,51.323402
2024-03-01T01:41:00.504Z,51.323444
2024-03-01T01:42:00.365Z,51.323421
2024-03-01T01:43:00.347Z,51.323418
2024-03-01T01:44:00.329Z,51.323441
2024-03-01T01:45:00.311Z,51.323429
2024-03-01T01:46:01.318Z,51.323452
2024-03-01T01:47:00.295Z,51.323471
2024-03-01T01:48:00.274Z,51.323452
2024-03-01T01:49:00.254Z,51.323437
2024-03-01T01:50:00.208Z,51.323437
2024-03-01T01:51:01.227Z,51.323383
2024-03-01T01:52:00.264Z,51.323444
2024-03-01T01:53:00.189Z,51.323463
2024-03-01T01:54:00.164Z,51.323429
2024-03-01T01:55:00.168Z,51.323433
2024-03-01T01:56:00.651Z,51.323429
2024-03-01T01:57:00.093Z,51.323425
2024-03-01T01:58:00.156Z,51.323444
2024-03-01T01:59:00.063Z,51.323433
2024-03-01T02:00:00.005Z,51.323414
2024-03-01T02:01:00.055Z,51.323391
2024-03-01T02:02:00.263Z,51.323395
2024-03-01T02:03:00.602Z,51.323395
2024-03-01T02:03:59.968Z,51.323387
2024-03-01T02:04:59.945Z,51.323414
2024-03-01T02:05:59.936Z,51.323421
2024-03-01T02:06:59.938Z,51.323421
2024-03-01T02:07:59.882Z,51.323433
2024-03-01T02:08:59.884Z,51.323433
2024-03-01T02:10:00.905Z,51.323425
2024-03-01T02:10:59.821Z,51.323402
2024-03-01T02:11:59.852Z,51.323421
2024-03-01T02:12:59.857Z,51.323433
2024-03-01T02:13:59.802Z,51.323601
2024-03-01T02:14:59.743Z,51.323509
2024-03-01T02:15:59.770Z,51.323463
2024-03-01T02:16:59.709Z,51.323410
2024-03-01T02:17:59.869Z,51.323421
2024-03-01T02:18:59.710Z,51.323429
2024-03-01T02:19:59.697Z,51.323433
2024-03-01T02:20:59.640Z,51.323448
2024-03-01T02:21:59.699Z,51.323425
2024-03-01T02:22:59.638Z,51.323448
2024-03-01T02:23:59.593Z,51.323402
2024-03-01T02:24:59.594Z,51.323498
2024-03-01T02:25:59.543Z,51.323467
2024-03-01T02:27:02.596Z,51.323475
2024-03-01T02:28:00.524Z,51.323475
2024-03-01T02:28:59.490Z,51.323456
2024-03-01T02:29:59.498Z,51.323463
2024-03-01T02:30:59.552Z,51.323460
2024-03-01T02:31:59.422Z,51.323452
2024-03-01T02:32:59.427Z,51.323437
2024-03-01T02:33:59.507Z,51.323402
2024-03-01T02:34:59.379Z,51.323441
2024-03-01T02:35:59.382Z,51.323463
2024-03-01T02:36:59.393Z,51.323467
2024-03-01T02:37:59.305Z,51.323448
2024-03-01T02:38:59.312Z,51.323463
2024-03-01T02:39:59.311Z,51.323505
2024-03-01T02:40:59.254Z,51.323502
2024-03-01T02:41:59.361Z,51.323448
2024-03-01T02:42:59.261Z,51.323483
2024-03-01T02:43:59.230Z,51.323490
2024-03-01T02:44:59.210Z,51.323483
2024-03-01T02:45:59.199Z,51.323494
2024-03-01T02:46:59.221Z,51.323456
2024-03-01T02:47:59.173Z,51.323502
2024-03-01T02:48:59.134Z,51.323486
2024-03-01T02:49:59.110Z,51.323479
2024-03-01T02:50:59.082Z,51.323471
2024-03-01T02:51:59.126Z,51.323494
2024-03-01T02:52:59.088Z,51.323475
2024-03-01T02:53:59.037Z,51.323502
2024-03-01T02:54:59.024Z,51.323463
2024-03-01T02:55:59.000Z,51.323463
2024-03-01T02:56:58.972Z,51.323460
2024-03-01T02:57:59.170Z,51.323460
2024-03-01T02:58:58.937Z,51.323460
2024-03-01T02:59:58.919Z,51.323463
2024-03-01T03:00:59.058Z,51.323467
2024-03-01T03:01:58.907Z,51.323475
2024-03-01T03:02:58.868Z,51.323483
2024-03-01T03:03:59.001Z,51.323456
2024-03-01T03:04:58.830Z,51.323452
2024-03-01T03:05:58.819Z,51.323448
2024-03-01T03:06:59.297Z,51.323456
2024-03-01T03:08:00.010Z,51.323486
2024-03-01T03:08:58.788Z,51.323486
2024-03-01T03:09:58.748Z,51.323475
2024-03-01T03:10:58.751Z,51.323429
2024-03-01T03:11:58.695Z,51.323421
2024-03-01T03:12:58.745Z,51.323467
2024-03-01T03:13:58.668Z,51.323475
2024-03-01T03:14:58.670Z,51.323490
2024-03-01T03:15:58.671Z,51.323475
2024-03-01T03:16:58.608Z,51.323490
2024-03-01T03:17:58.622Z,51.323475
2024-03-01T03:18:58.585Z,51.323471
2024-03-01T03:19:58.588Z,51.323463
2024-03-01T03:20:58.529Z,51.323479
2024-03-01T03:21:58.662Z,51.323486
2024-03-01T03:22:58.492Z,51.323494
2024-03-01T03:23:58.478Z,51.323479
2024-03-01T03:24:58.536Z,51.323441
2024-03-01T03:25:58.468Z,51.323467
2024-03-01T03:26:58.417Z,51.323486
2024-03-01T03:27:58.429Z,51.323429
2024-03-01T03:28:58.381Z,51.323467
2024-03-01T03:29:58.368Z,51.323460
2024-03-01T03:30:58.396Z,51.323418
2024-03-01T03:31:58.345Z,51.323448
2024-03-01T03:32:58.363Z,51.323463
2024-03-01T03:33:58.300Z,51.323471
2024-03-01T03:34:58.279Z,51.323460
2024-03-01T03:35:58.275Z,51.323467
2024-03-01T03:36:58.283Z,51.323486
2024-03-01T03:37:58.233Z,51.323460
2024-03-01T03:38:58.206Z,51.323467
2024-03-01T03:39:58.191Z,51.323483
2024-03-01T03:40:58.164Z,51.323483
2024-03-01T03:41:58.186Z,51.323471
2024-03-01T03:42:58.177Z,51.323448
2024-03-01T03:43:58.123Z,51.323437
2024-03-01T03:44:58.098Z,51.323410
2024-03-01T03:45:58.101Z,51.323425
2024-03-01T03:46:58.055Z,51.323448
2024-03-01T03:47:58.088Z,51.323490
2024-03-01T03:48:58.040Z,51.323467
2024-03-01T03:49:58.007Z,51.323441
2024-03-01T03:50:57.992Z,51.323437
2024-03-01T03:51:58.007Z,51.323452
2024-03-01T03:52:57.978Z,51.323456
2024-03-01T03:53:57.957Z,51.323437
2024-03-01T03:54:57.934Z,51.323425
2024-03-01T03:55:57.909Z,51.323429
2024-03-01T03:56:57.879Z,51.323425
2024-03-01T03:57:57.917Z,51.323437
2024-03-01T03:58:57.961Z,51.323498
2024-03-01T03:59:57.837Z,51.323429
2024-03-01T04:00:57.929Z,51.323410
2024-03-01T04:01:57.863Z,51.323425
2024-03-01T04:02:57.775Z,51.323437
2024-03-01T04:03:57.821Z,51.323441
2024-03-01T04:04:57.734Z,51.323463
2024-03-01T04:05:57.717Z,51.323456
2024-03-01T04:06:57.721Z,51.323429
2024-03-01T04:07:57.678Z,51.323429
2024-03-01T04:08:57.663Z,51.323414
2024-03-01T04:09:57.806Z,51.323421
2024-03-01T04:10:57.637Z,51.323425
2024-03-01T04:11:57.625Z,51.323429
2024-03-01T04:12:57.614Z,51.323410
2024-03-01T04:13:57.576Z,51.323372
2024-03-01T04:14:57.594Z,51.323425
2024-03-01T04:15:57.574Z,51.323410
2024-03-01T04:16:57.523Z,51.323429
2024-03-01T04:17:57.533Z,51.323441
2024-03-01T04:18:57.562Z,51.323425
2024-03-01T04:19:57.449Z,51.323414
2024-03-01T04:20:57.491Z,51.323429
2024-03-01T04:21:57.444Z,51.323425
2024-03-01T04:22:57.425Z,51.323421
2024-03-01T04:23:57.400Z,51.323429
2024-03-01T04:24:57.421Z,51.323437
2024-03-01T04:25:57.508Z,51.323433
2024-03-01T04:26:58.324Z,51.323410
2024-03-01T04:27:57.369Z,51.323402
2024-03-01T04:28:57.287Z,51.323414
2024-03-01T04:29:57.284Z,51.323418
2024-03-01T04:30:57.303Z,51.323418
2024-03-01T04:31:57.276Z,51.323429
2024-03-01T04:32:57.234Z,51.323414
2024-03-01T04:33:57.226Z,51.323433
2024-03-01T04:34:57.205Z,51.323418
2024-03-01T04:35:57.173Z,51.323402
2024-03-01T04:36:57.186Z,51.323429
2024-03-01T04:37:57.135Z,51.323441
2024-03-01T04:38:57.098Z,51.323433
2024-03-01T04:39:57.163Z,51.323437
2024-03-01T04:40:57.088Z,51.323433
2024-03-01T04:41:57.159Z,51.323433
2024-03-01T04:42:57.082Z,51.323421
2024-03-01T04:43:57.034Z,51.323418
2024-03-01T04:44:57.010Z,51.323429
2024-03-01T04:45:56.996Z,51.323410
2024-03-01T04:46:56.963Z,51.323429
2024-03-01T04:47:56.980Z,51.323421
2024-03-01T04:48:57.011Z,51.323395
2024-03-01T04:49:56.912Z,51.323414
2024-03-01T04:50:56.874Z,51.323429
2024-03-01T04:51:56.877Z,51.323456
2024-03-01T04:52:56.859Z,51.323425
2024-03-01T04:53:56.856Z,51.323414
2024-03-01T04:54:56.878Z,51.323414
2024-03-01T04:55:56.782Z,51.323402
2024-03-01T04:56:56.789Z,51.323410
2024-03-01T04:57:56.805Z,51.323391
2024-03-01T04:58:56.873Z,51.323399
2024-03-01T04:59:56.704Z,51.323395
2024-03-01T05:00:56.793Z,51.323395
2024-03-01T05:01:57.676Z,51.323425
2024-03-01T05:02:56.649Z,51.323425
2024-03-01T05:03:56.712Z,51.323425
2024-03-01T05:04:56.729Z,51.323406
2024-03-01T05:05:56.615Z,51.323421
2024-03-01T05:06:56.589Z,51.323418
2024-03-01T05:07:56.580Z,51.323414
2024-03-01T05:08:56.543Z,51.323399
2024-03-01T05:09:56.614Z,51.323425
2024-03-01T05:10:56.677Z,51.323410
2024-03-01T05:11:56.522Z,51.323410
2024-03-01T05:12:56.528Z,51.323399
2024-03-01T05:13:56.563Z,51.323406
2024-03-01T05:14:56.452Z,51.323418
2024-03-01T05:15:56.575Z,51.323414
2024-03-01T05:16:56.430Z,51.323391
2024-03-01T05:17:56.446Z,51.323406
2024-03-01T05:18:56.413Z,51.323399
2024-03-01T05:19:56.362Z,51.323391
2024-03-01T05:20:56.378Z,51.323380
2024-03-01T05:21:56.342Z,51.323402
2024-03-01T05:22:56.306Z,51.323410
2024-03-01T05:23:56.303Z,51.323406
2024-03-01T05:24:56.309Z,51.323410
2024-03-01T05:25:56.263Z,51.323410
2024-03-01T05:26:56.249Z,51.323399
2024-03-01T05:27:56.237Z,51.323406
2024-03-01T05:28:56.211Z,51.323410
2024-03-01T05:29:56.230Z,51.323418
2024-03-01T05:31:03.616Z,51.323425
2024-03-01T05:31:57.212Z,51.323418
2024-03-01T05:32:56.177Z,51.323391
2024-03-01T05:33:56.157Z,51.323421
2024-03-01T05:34:56.070Z,51.323338
2024-03-01T05:35:56.643Z,51.323376
2024-03-01T05:36:56.054Z,51.323406
2024-03-01T05:37:56.072Z,51.323433
2024-03-01T05:38:56.018Z,51.323425
2024-03-01T05:39:56.704Z,51.323425
2024-03-01T05:40:56.336Z,51.323387
2024-03-01T05:41:56.959Z,51.323410
2024-03-01T05:42:55.973Z,51.323421
2024-03-01T05:43:55.929Z,51.323429
2024-03-01T05:44:55.917Z,51.323448
2024-03-01T05:45:56.029Z,51.323380
2024-03-01T05:46:55.865Z,51.323433
2024-03-01T05:47:55.851Z,51.323483
2024-03-01T05:48:56.650Z,51.323463
2024-03-01T05:49:55.831Z,51.323395
2024-03-01T05:50:55.782Z,51.323418
2024-03-01T05:51:55.814Z,51.323399
2024-03-01T05:52:55.774Z,51.323429
2024-03-01T05:53:55.761Z,51.323421
2024-03-01T05:54:55.729Z,51.323395
2024-03-01T05:55:55.699Z,51.323429
2024-03-01T05:56:55.686Z,51.323448
2024-03-01T05:57:55.678Z,51.323475
2024-03-01T05:58:55.634Z,51.323463
2024-03-01T05:59:55.642Z,51.323444
2024-03-01T06:00:55.656Z,51.323360
2024-03-01T06:01:55.753Z,51.323444
2024-03-01T06:02:58.381Z,51.323448
2024-03-01T06:03:56.562Z,51.323463
2024-03-01T06:04:55.653Z,51.323463
2024-03-01T06:05:55.571Z,51.323467
2024-03-01T06:06:55.536Z,51.323441
2024-03-01T06:07:55.481Z,51.323448
2024-03-01T06:08:55.484Z,51.323441
2024-03-01T06:09:55.481Z,51.323410
2024-03-01T06:10:55.495Z,51.323425
2024-03-01T06:11:55.451Z,51.323448
2024-03-01T06:12:58.943Z,51.323391
2024-03-01T06:13:55.390Z,51.323421
2024-03-01T06:14:55.360Z,51.323452
2024-03-01T06:15:55.502Z,51.323444
2024-03-01T06:16:55.335Z,51.323441
2024-03-01T06:17:55.525Z,51.323456
2024-03-01T06:18:55.335Z,51.323456
2024-03-01T06:19:55.296Z,51.323444
2024-03-01T06:20:55.241Z,51.323448
2024-03-01T06:21:55.307Z,51.323402
2024-03-01T06:22:55.220Z,51.323395
2024-03-01T06:23:55.202Z,51.323380
2024-03-01T06:24:55.225Z,51.323410
2024-03-01T06:25:55.169Z,51.323410
2024-03-01T06:26:55.149Z,51.323425
2024-03-01T06:27:55.177Z,51.323425
2024-03-01T06:28:55.113Z,51.323429
2024-03-01T06:29:55.153Z,51.323364
2024-03-01T06:30:55.111Z,51.323421
2024-03-01T06:31:55.054Z,51.323425
2024-03-01T06:32:55.351Z,51.323444
2024-03-01T06:33:55.067Z,51.323406
2024-03-01T06:34:54.996Z,51.323425
2024-03-01T06:35:54.971Z,51.323418
2024-03-01T06:36:54.991Z,51.323421
2024-03-01T06:37:54.966Z,51.323433
2024-03-01T06:38:54.915Z,51.323406
2024-03-01T06:39:54.971Z,51.323429
2024-03-01T06:40:54.895Z,51.323421
2024-03-01T06:41:54.888Z,51.323421
2024-03-01T06:42:54.889Z,51.323402
2024-03-01T06:43:54.870Z,51.323425
2024-03-01T06:44:54.821Z,51.323429
2024-03-01T06:45:54.833Z,51.323456
2024-03-01T06:46:54.777Z,51.323437
2024-03-01T06:47:54.826Z,51.323425
2024-03-01T06:48:54.812Z,51.323437
2024-03-01T06:49:54.713Z,51.323429
2024-03-01T06:50:54.710Z,51.323410
2024-03-01T06:51:54.679Z,51.323425
2024-03-01T06:52:54.675Z,51.323448
2024-03-01T06:53:54.629Z,51.323421
2024-03-01T06:54:54.738Z,51.323433
2024-03-01T06:55:54.622Z,51.323444
2024-03-01T06:56:54.592Z,51.323429
2024-03-01T06:57:54.635Z,51.323433
2024-03-01T06:58:54.563Z,51.323418
2024-03-01T06:59:54.569Z,51.323410
2024-03-01T07:00:54.585Z,51.323421
2024-03-01T07:01:54.545Z,51.323421
2024-03-01T07:02:54.487Z,51.323418
2024-03-01T07:03:54.500Z,51.323418
2024-03-01T07:04:54.489Z,51.323437
2024-03-01T07:05:54.583Z,51.323456
2024-03-01T07:06:54.460Z,51.323418
2024-03-01T07:07:55.384Z,51.323399
2024-03-01T07:08:54.366Z,51.323418
2024-03-01T07:09:54.417Z,51.323406
2024-03-01T07:10:54.428Z,51.323418
2024-03-01T07:11:54.319Z,51.323410
2024-03-01T07:12:54.370Z,51.323399
2024-03-01T07:13:54.282Z,51.323425
2024-03-01T07:14:54.270Z,51.323437
2024-03-01T07:15:54.285Z,51.323410
2024-03-01T07:16:54.256Z,51.323391
2024-03-01T07:17:54.237Z,51.323410
2024-03-01T07:18:54.207Z,51.323391
2024-03-01T07:19:54.163Z,51.323433
2024-03-01T07:20:54.141Z,51.323433
2024-03-01T07:21:54.320Z,51.323437
2024-03-01T07:22:54.143Z,51.323421
2024-03-01T07:23:54.098Z,51.323441
2024-03-01T07:24:54.088Z,51.323460
2024-03-01T07:25:54.050Z,51.323456
2024-03-01T07:26:54.050Z,51.323437
2024-03-01T07:27:54.113Z,51.323410
2024-03-01T07:28:54.000Z,51.323406
2024-03-01T07:29:53.977Z,51.323402
2024-03-01T07:30:54.059Z,51.323425
2024-03-01T07:31:53.944Z,51.323441
2024-03-01T07:32:53.975Z,51.323433
2024-03-01T07:33:54.008Z,51.323421
2024-03-01T07:34:53.898Z,51.323418
2024-03-01T07:35:53.888Z,51.323429
2024-03-01T07:36:53.917Z,51.323414
2024-03-01T07:37:53.955Z,51.323399
2024-03-01T07:38:53.855Z,51.323406
2024-03-01T07:39:53.868Z,51.323433
2024-03-01T07:40:53.802Z,51.323441
2024-03-01T07:41:53.782Z,51.323460
2024-03-01T07:42:53.801Z,51.323414
2024-03-01T07:43:53.866Z,51.323399
2024-03-01T07:44:53.713Z,51.323387
2024-03-01T07:45:53.689Z,51.323418
2024-03-01T07:46:53.687Z,51.323414
2024-03-01T07:47:53.708Z,51.323429
2024-03-01T07:48:53.666Z,51.323448
2024-03-01T07:49:53.652Z,51.323425
2024-03-01T07:50:53.606Z,51.323418
2024-03-01T07:51:53.854Z,51.323429
2024-03-01T07:52:53.567Z,51.323418
2024-03-01T07:53:53.660Z,51.323421
2024-03-01T07:54:53.570Z,51.323429
2024-03-01T07:55:53.574Z,51.323418
2024-03-01T07:56:53.501Z,51.323421
2024-03-01T07:57:53.531Z,51.323452
2024-03-01T07:58:53.514Z,51.323437
2024-03-01T07:59:53.434Z,51.323406
2024-03-01T08:00:53.496Z,51.323402
2024-03-01T08:01:53.441Z,51.323391
2024-03-01T08:02:53.403Z,51.323414
2024-03-01T08:03:55.484Z,51.323414
2024-03-01T08:04:54.415Z,51.323421
2024-03-01T08:05:53.351Z,51.323421
2024-03-01T08:06:53.379Z,51.323418
2024-03-01T08:07:53.298Z,51.323421
2024-03-01T08:08:53.275Z,51.323406
2024-03-01T08:09:53.307Z,51.323429
2024-03-01T08:10:53.270Z,51.323437
2024-03-01T08:11:53.265Z,51.323444
2024-03-01T08:12:53.257Z,51.323448
2024-03-01T08:13:53.198Z,51.323437
2024-03-01T08:14:53.198Z,51.323437
2024-03-01T08:15:53.212Z,51.323460
2024-03-01T08:16:53.178Z,51.323460
2024-03-01T08:17:53.155Z,51.323467
2024-03-01T08:18:53.147Z,51.323437
2024-03-01T08:19:53.078Z,51.323425
2024-03-01T08:20:53.080Z,51.323425
2024-03-01T08:21:53.070Z,51.323429
2024-03-01T08:22:53.168Z,51.323414
2024-03-01T08:23:53.026Z,51.323429
2024-03-01T08:24:53.022Z,51.323463
2024-03-01T08:25:53.092Z,51.323429
2024-03-01T08:26:52.971Z,51.323418
2024-03-01T08:27:53.029Z,51.323421
2024-03-01T08:28:52.949Z,51.323414
2024-03-01T08:29:52.922Z,51.323387
2024-03-01T08:30:52.951Z,51.323418
2024-03-01T08:31:52.870Z,51.323402
2024-03-01T08:32:52.908Z,51.323410
2024-03-01T08:33:52.919Z,51.323414
2024-03-01T08:34:52.863Z,51.323399
2024-03-01T08:35:52.821Z,51.323387
2024-03-01T08:36:52.872Z,51.323353
2024-03-01T08:37:52.786Z,51.323376
2024-03-01T08:38:52.808Z,51.323399
2024-03-01T08:39:52.872Z,51.323433
2024-03-01T08:40:52.761Z,51.323425
2024-03-01T08:41:52.730Z,51.323391
2024-03-01T08:42:52.815Z,51.323421
2024-03-01T08:43:52.679Z,51.323429
2024-03-01T08:44:52.774Z,51.323357
2024-03-01T08:45:52.656Z,51.323368
2024-03-01T08:46:52.671Z,51.323368
2024-03-01T08:47:52.730Z,51.323345
2024-03-01T08:48:52.759Z,51.323376
2024-03-01T08:49:53.808Z,51.323406
2024-03-01T08:50:53.542Z,51.323380
2024-03-01T08:51:52.545Z,51.323414
2024-03-01T08:52:52.571Z,51.323399
2024-03-01T08:53:52.483Z,51.323387
2024-03-01T08:54:52.744Z,51.323410
2024-03-01T08:55:52.726Z,51.323383
2024-03-01T08:56:52.543Z,51.323360
2024-03-01T08:57:52.433Z,51.323376
2024-03-01T08:58:52.433Z,51.323421
2024-03-01T08:59:52.374Z,51.323410
2024-03-01T09:00:52.406Z,51.323414
2024-03-01T09:01:52.331Z,51.323437
2024-03-01T09:02:52.303Z,51.323414
2024-03-01T09:03:52.255Z,51.323418
2024-03-01T09:04:52.276Z,51.323399
2024-03-01T09:05:52.238Z,51.323391
2024-03-01T09:06:52.243Z,51.323387
2024-03-01T09:07:52.183Z,51.323345
2024-03-01T09:08:52.166Z,51.323341
2024-03-01T09:09:52.132Z,51.323387
2024-03-01T09:10:52.218Z,51.323421
2024-03-01T09:11:52.141Z,51.323410
2024-03-01T09:12:52.075Z,51.323391
2024-03-01T09:13:52.047Z,51.323399
2024-03-01T09:14:52.045Z,51.323406
2024-03-01T09:15:52.021Z,51.323399
2024-03-01T09:16:52.005Z,51.323441
2024-03-01T09:17:52.060Z,51.323406
2024-03-01T09:18:51.937Z,51.323414
2024-03-01T09:19:51.932Z,51.323418
2024-03-01T09:20:51.914Z,51.323448
2024-03-01T09:21:51.876Z,51.323463
2024-03-01T09:22:51.887Z,51.323395
2024-03-01T09:23:51.850Z,51.323441
2024-03-01T09:24:51.825Z,51.323444
2024-03-01T09:25:51.804Z,51.323452
2024-03-01T09:26:51.793Z,51.323444
2024-03-01T09:27:51.748Z,51.323463
2024-03-01T09:28:51.762Z,51.323463
2024-03-01T09:29:51.706Z,51.323467
2024-03-01T09:30:51.937Z,51.323402
2024-03-01T09:31:51.676Z,51.323471
2024-03-01T09:32:51.739Z,51.323463
2024-03-01T09:33:51.670Z,51.323452
2024-03-01T09:34:51.618Z,51.323429
2024-03-01T09:35:51.898Z,51.323425
2024-03-01T09:36:51.563Z,51.323387
2024-03-01T09:37:51.558Z,51.323376
2024-03-01T09:38:51.517Z,51.323414
2024-03-01T09:39:51.582Z,51.323391
2024-03-01T09:40:51.738Z,51.323395
2024-03-01T09:41:51.470Z,51.323402
2024-03-01T09:42:51.454Z,51.323463
2024-03-01T09:43:51.412Z,51.323421
2024-03-01T09:44:51.429Z,51.323425
2024-03-01T09:45:51.487Z,51.323448
2024-03-01T09:46:51.363Z,51.323406
2024-03-01T09:47:51.369Z,51.323410
2024-03-01T09:48:51.303Z,51.323406
2024-03-01T09:49:51.280Z,51.323433
2024-03-01T09:50:51.294Z,51.323414
2024-03-01T09:51:51.228Z,51.323414
2024-03-01T09:52:51.214Z,51.323414
2024-03-01T09:53:51.209Z,51.323418
2024-03-01T09:54:51.183Z,51.323402
2024-03-01T09:55:51.215Z,51.323429
2024-03-01T09:56:51.144Z,51.323448
2024-03-01T09:57:51.138Z,51.323429
2024-03-01T09:58:51.107Z,51.323418
2024-03-01T09:59:51.078Z,51.323406
2024-03-01T10:00:51.104Z,51.323410
2024-03-01T10:01:51.183Z,51.323421
2024-03-01T10:02:51.011Z,51.323406
2024-03-01T10:03:50.995Z,51.323410
2024-03-01T10:04:51.063Z,51.323418
2024-03-01T10:05:51.981Z,51.323425
2024-03-01T10:06:52.100Z,51.323383
2024-03-01T10:07:50.919Z,51.323410
2024-03-01T10:08:50.898Z,51.323414
2024-03-01T10:09:50.879Z,51.323421
2024-03-01T10:10:51.988Z,51.323441
2024-03-01T10:11:50.894Z,51.323448
2024-03-01T10:12:50.848Z,51.323444
2024-03-01T10:13:50.810Z,51.323437
2024-03-01T10:14:50.778Z,51.323444
2024-03-01T10:15:50.756Z,51.323463
2024-03-01T10:16:50.744Z,51.323467
2024-03-01T10:17:50.941Z,51.323437
2024-03-01T10:18:50.697Z,51.323421
2024-03-01T10:19:50.683Z,51.323444
2024-03-01T10:20:50.682Z,51.323479
2024-03-01T10:21:50.665Z,51.323460
2024-03-01T10:22:50.716Z,51.323467
2024-03-01T10:23:50.654Z,51.323448
2024-03-01T10:24:50.637Z,51.323399
2024-03-01T10:25:51.978Z,51.323395
2024-03-01T10:26:51.548Z,51.323418
2024-03-01T10:27:50.542Z,51.323456
2024-03-01T10:28:50.556Z,51.323456
2024-03-01T10:29:50.520Z,51.323441
2024-03-01T10:30:50.474Z,51.323421
2024-03-01T10:31:50.495Z,51.323421
2024-03-01T10:32:50.467Z,51.323437
2024-03-01T10:33:51.827Z,51.323444
2024-03-01T10:34:50.461Z,51.323418
2024-03-01T10:35:50.385Z,51.323421
2024-03-01T10:36:50.346Z,51.323448
2024-03-01T10:37:50.400Z,51.323444
2024-03-01T10:38:50.314Z,51.323441
2024-03-01T10:39:50.322Z,51.323448
2024-03-01T10:40:50.309Z,51.323463
2024-03-01T10:41:50.351Z,51.323471
2024-03-01T10:42:50.224Z,51.323448
2024-03-01T10:43:50.200Z,51.323452
2024-03-01T10:44:50.193Z,51.323437
2024-03-01T10:45:50.209Z,51.323380
2024-03-01T10:46:50.144Z,51.323448
2024-03-01T10:47:50.144Z,51.323467
2024-03-01T10:48:50.105Z,51.323441
2024-03-01T10:49:50.183Z,51.323391
2024-03-01T10:50:50.124Z,51.323437
2024-03-01T10:51:50.059Z,51.323433
2024-03-01T10:52:50.076Z,51.323444
2024-03-01T10:53:49.984Z,51.323460
2024-03-01T10:54:49.975Z,51.323429
2024-03-01T10:55:49.968Z,51.323425
2024-03-01T10:56:49.933Z,51.323406
2024-03-01T10:57:49.906Z,51.323368
2024-03-01T10:58:49.948Z,51.323391
2024-03-01T10:59:49.859Z,51.323410
2024-03-01T11:00:49.884Z,51.323402
2024-03-01T11:01:49.965Z,51.323410
2024-03-01T11:02:49.800Z,51.323433
2024-03-01T11:03:50.775Z,51.323399
2024-03-01T11:04:49.953Z,51.323418
2024-03-01T11:05:49.752Z,51.323414
2024-03-01T11:06:49.738Z,51.323437
2024-03-01T11:07:49.742Z,51.323399
2024-03-01T11:08:49.693Z,51.323471
2024-03-01T11:09:49.663Z,51.323460
2024-03-01T11:10:49.745Z,51.323433
2024-03-01T11:11:49.650Z,51.323437
2024-03-01T11:12:49.647Z,51.323479
2024-03-01T11:13:49.629Z,51.323593
2024-03-01T11:14:51.160Z,51.323490
2024-03-01T11:15:49.619Z,51.323444
2024-03-01T11:16:49.564Z,51.323452
2024-03-01T11:17:49.614Z,51.323421
2024-03-01T11:18:49.535Z,51.323437
2024-03-01T11:19:49.488Z,51.323448
2024-03-01T11:20:49.449Z,51.323460
2024-03-01T11:21:49.549Z,51.323452
2024-03-01T11:22:49.414Z,51.323452
2024-03-01T11:23:49.474Z,51.323452